createdAt,value
2022-12-06T00:00:31.754Z,2.00
2022-12-06T00:01:31.754Z,1.90
2022-12-06T00:02:31.794Z,2.20
2022-12-06T00:03:31.831Z,2.10
2022-12-06T00:04:31.705Z,2.10
2022-12-06T00:05:31.694Z,2.10
2022-12-06T00:06:31.697Z,2.10
2022-12-06T00:07:31.780Z,1.90
2022-12-06T00:08:31.658Z,2.30
2022-12-06T00:09:31.688Z,1.90
2022-12-06T00:10:31.632Z,1.90
2022-12-06T00:11:31.645Z,2.10
2022-12-06T00:12:31.610Z,1.90
2022-12-06T00:13:31.624Z,1.70
2022-12-06T00:14:31.600Z,1.80
2022-12-06T00:15:31.583Z,2.10
2022-12-06T00:16:31.637Z,1.70
2022-12-06T00:17:31.565Z,2.10
2022-12-06T00:18:31.560Z,2.20
2022-12-06T00:19:31.552Z,1.90
2022-12-06T00:20:31.534Z,2.00
2022-12-06T00:21:31.512Z,2.00
2022-12-06T00:22:31.518Z,2.00
2022-12-06T00:23:31.832Z,2.30
2022-12-06T00:24:31.517Z,1.80
2022-12-06T00:25:31.472Z,1.90
2022-12-06T00:26:31.494Z,2.10
2022-12-06T00:27:31.465Z,2.00
2022-12-06T00:28:31.431Z,1.80
2022-12-06T00:29:31.438Z,1.90
2022-12-06T00:30:31.401Z,1.90
2022-12-06T00:31:31.465Z,1.70
2022-12-06T00:32:31.475Z,1.90
2022-12-06T00:33:31.375Z,2.20
2022-12-06T00:34:31.359Z,2.10
2022-12-06T00:35:31.370Z,1.60
2022-12-06T00:36:31.377Z,1.80
2022-12-06T00:37:31.360Z,2.00
2022-12-06T00:38:31.339Z,2.10
2022-12-06T00:39:31.311Z,2.10
2022-12-06T00:40:31.297Z,2.00
2022-12-06T00:41:31.298Z,1.90
2022-12-06T00:42:31.273Z,2.00
2022-12-06T00:43:31.286Z,1.90
2022-12-06T00:44:31.284Z,2.10
2022-12-06T00:45:31.314Z,2.00
2022-12-06T00:46:31.374Z,2.30
2022-12-06T00:47:31.227Z,2.40
2022-12-06T00:48:31.202Z,2.20
2022-12-06T00:49:31.201Z,2.30
2022-12-06T00:50:31.224Z,2.20
2022-12-06T00:51:31.188Z,2.40
2022-12-06T00:52:31.159Z,2.70
2022-12-06T00:53:32.251Z,1.90
2022-12-06T00:54:31.135Z,2.10
2022-12-06T00:55:31.149Z,2.10
2022-12-06T00:56:31.129Z,2.30
2022-12-06T00:57:31.105Z,2.60
2022-12-06T00:58:31.116Z,2.30
2022-12-06T00:59:31.084Z,2.20
2022-12-06T01:00:31.068Z,2.40
2022-12-06T01:01:31.152Z,2.30
2022-12-06T01:02:31.095Z,2.30
2022-12-06T01:03:35.125Z,2.40
2022-12-06T01:04:31.022Z,2.00
2022-12-06T01:05:31.018Z,2.30
2022-12-06T01:06:31.001Z,2.50
2022-12-06T01:07:31.103Z,2.50
2022-12-06T01:08:31.038Z,2.20
2022-12-06T01:09:30.982Z,2.20
2022-12-06T01:10:30.961Z,2.50
2022-12-06T01:11:30.948Z,2.30
2022-12-06T01:12:31.904Z,2.60
2022-12-06T01:13:30.983Z,2.60
2022-12-06T01:14:30.910Z,2.50
2022-12-06T01:15:30.903Z,2.40
2022-12-06T01:16:30.998Z,3.00
2022-12-06T01:17:30.883Z,2.40
2022-12-06T01:18:30.867Z,2.50
2022-12-06T01:19:30.912Z,2.70
2022-12-06T01:20:30.850Z,2.60
2022-12-06T01:21:30.858Z,2.50
2022-12-06T01:22:30.819Z,2.50
2022-12-06T01:23:30.829Z,2.60
2022-12-06T01:24:30.799Z,2.30
2022-12-06T01:25:35.790Z,2.60
2022-12-06T01:26:31.797Z,2.30
2022-12-06T01:27:30.769Z,2.50
2022-12-06T01:28:30.762Z,2.10
2022-12-06T01:29:30.775Z,2.30
2022-12-06T01:30:30.811Z,2.40
2022-12-06T01:31:37.117Z,2.50
2022-12-06T01:32:31.727Z,2.20
2022-12-06T01:33:30.727Z,2.30
2022-12-06T01:34:30.685Z,2.50
2022-12-06T01:35:30.680Z,2.50
2022-12-06T01:36:30.668Z,2.20
2022-12-06T01:37:30.677Z,2.60
2022-12-06T01:38:30.660Z,2.50
2022-12-06T01:39:30.673Z,2.20
2022-12-06T01:40:30.614Z,2.10
2022-12-06T01:41:30.633Z,2.00
2022-12-06T01:42:30.596Z,2.10
2022-12-06T01:43:30.611Z,1.90
2022-12-06T01:44:30.582Z,2.30
2022-12-06T01:45:30.577Z,2.20
2022-12-06T01:46:30.632Z,2.00
2022-12-06T01:47:30.543Z,2.50
2022-12-06T01:48:30.531Z,2.70
2022-12-06T01:49:30.543Z,2.10
2022-12-06T01:50:30.537Z,2.20
2022-12-06T01:51:30.507Z,2.30
2022-12-06T01:52:30.485Z,2.30
2022-12-06T01:53:30.477Z,2.30
2022-12-06T01:54:30.487Z,2.00
2022-12-06T01:55:30.472Z,2.50
2022-12-06T01:56:30.462Z,2.10
2022-12-06T01:57:30.434Z,2.20
2022-12-06T01:58:30.414Z,2.40
2022-12-06T01:59:30.431Z,2.10
2022-12-06T02:00:30.395Z,2.30
2022-12-06T02:01:30.396Z,2.30
2022-12-06T02:02:30.460Z,2.10
2022-12-06T02:03:30.365Z,2.40
2022-12-06T02:04:30.349Z,2.00
2022-12-06T02:05:30.366Z,2.40
2022-12-06T02:06:30.334Z,2.30
2022-12-06T02:07:30.321Z,2.40
2022-12-06T02:08:30.333Z,2.10
2022-12-06T02:09:30.330Z,2.30
2022-12-06T02:10:30.279Z,2.50
2022-12-06T02:11:34.980Z,2.50
2022-12-06T02:12:31.281Z,2.80
2022-12-06T02:13:30.251Z,2.30
2022-12-06T02:14:30.284Z,2.00
2022-12-06T02:15:30.250Z,2.40
2022-12-06T02:16:30.273Z,2.20
2022-12-06T02:17:30.207Z,2.10
2022-12-06T02:18:30.193Z,2.20
2022-12-06T02:19:30.192Z,2.30
2022-12-06T02:20:30.212Z,2.00
2022-12-06T02:21:30.184Z,2.30
2022-12-06T02:22:30.161Z,2.10
2022-12-06T02:23:30.140Z,2.10
2022-12-06T02:24:30.128Z,2.10
2022-12-06T02:25:33.870Z,2.00
2022-12-06T02:26:30.136Z,2.40
2022-12-06T02:27:30.111Z,2.40
2022-12-06T02:28:30.080Z,2.00
2022-12-06T02:29:30.079Z,2.30
2022-12-06T02:30:30.160Z,2.00
2022-12-06T02:31:30.177Z,2.20
2022-12-06T02:32:30.076Z,2.30
2022-12-06T02:33:30.032Z,2.30
2022-12-06T02:34:30.110Z,2.30
2022-12-06T02:35:30.013Z,2.00
2022-12-06T02:36:29.995Z,2.40
2022-12-06T02:37:29.984Z,2.50
2022-12-06T02:38:30.020Z,2.40
2022-12-06T02:39:29.963Z,2.50
2022-12-06T02:40:29.946Z,2.40
2022-12-06T02:41:29.937Z,2.20
2022-12-06T02:42:29.954Z,2.20
2022-12-06T02:43:29.933Z,2.50
2022-12-06T02:44:29.918Z,2.60
2022-12-06T02:45:29.892Z,2.30
2022-12-06T02:46:30.068Z,2.60
2022-12-06T02:47:29.869Z,2.20
2022-12-06T02:48:29.875Z,2.00
2022-12-06T02:49:29.847Z,2.20
2022-12-06T02:50:29.856Z,2.20
2022-12-06T02:51:29.826Z,2.30
2022-12-06T02:52:29.814Z,2.30
2022-12-06T02:53:29.807Z,2.20
2022-12-06T02:54:29.805Z,2.40
2022-12-06T02:55:29.798Z,2.30
2022-12-06T02:56:29.820Z,2.70
2022-12-06T02:57:29.756Z,2.30
2022-12-06T02:58:29.745Z,2.20
2022-12-06T02:59:29.751Z,2.30
2022-12-06T03:00:29.745Z,2.20
2022-12-06T03:01:29.737Z,2.20
2022-12-06T03:02:29.748Z,2.10
2022-12-06T03:03:29.710Z,2.00
2022-12-06T03:04:29.682Z,1.90
2022-12-06T03:05:29.682Z,2.20
2022-12-06T03:06:29.657Z,2.10
2022-12-06T03:07:29.644Z,2.00
2022-12-06T03:08:29.668Z,2.20
2022-12-06T03:09:29.619Z,2.20
2022-12-06T03:10:29.633Z,1.90
2022-12-06T03:11:29.601Z,2.00
2022-12-06T03:12:29.598Z,2.10
2022-12-06T03:13:29.577Z,1.90
2022-12-06T03:14:29.589Z,2.00
2022-12-06T03:15:29.980Z,2.10
2022-12-06T03:16:29.569Z,2.10
2022-12-06T03:17:29.533Z,2.40
2022-12-06T03:18:29.522Z,1.90
2022-12-06T03:19:29.505Z,1.90
2022-12-06T03:20:29.522Z,2.00
2022-12-06T03:21:29.516Z,1.90
2022-12-06T03:22:29.481Z,2.00
2022-12-06T03:23:29.468Z,2.20
2022-12-06T03:24:29.458Z,2.50
2022-12-06T03:25:29.438Z,2.70
2022-12-06T03:26:29.476Z,2.20
2022-12-06T03:27:29.416Z,2.40
2022-12-06T03:28:29.411Z,2.40
2022-12-06T03:29:29.415Z,2.20
2022-12-06T03:30:29.389Z,2.40
2022-12-06T03:31:29.464Z,2.50
2022-12-06T03:32:29.412Z,2.30
2022-12-06T03:33:29.348Z,2.40
2022-12-06T03:34:29.368Z,2.50
2022-12-06T03:35:29.332Z,2.00
2022-12-06T03:36:29.316Z,2.40
2022-12-06T03:37:29.305Z,2.80
2022-12-06T03:38:29.318Z,2.40
2022-12-06T03:39:29.314Z,2.70
2022-12-06T03:40:29.275Z,2.90
2022-12-06T03:41:29.258Z,2.70
2022-12-06T03:42:29.253Z,2.80
2022-12-06T03:43:29.256Z,3.30
2022-12-06T03:44:29.248Z,3.10
2022-12-06T03:45:29.311Z,2.80
2022-12-06T03:46:29.302Z,2.90
2022-12-06T03:47:29.210Z,3.10
2022-12-06T03:48:29.214Z,3.10
2022-12-06T03:49:29.168Z,3.10
2022-12-06T03:50:29.198Z,3.00
2022-12-06T03:51:29.149Z,2.70
2022-12-06T03:52:29.209Z,3.30
2022-12-06T03:53:29.148Z,2.90
2022-12-06T03:54:29.118Z,3.10
2022-12-06T03:55:29.126Z,2.80
2022-12-06T03:56:29.119Z,3.30
2022-12-06T03:57:29.089Z,3.10
2022-12-06T03:58:29.079Z,3.00
2022-12-06T03:59:29.062Z,3.00
2022-12-06T04:00:29.071Z,2.70
2022-12-06T04:01:29.085Z,2.80
2022-12-06T04:02:29.048Z,2.60
2022-12-06T04:03:29.079Z,2.80
2022-12-06T04:04:29.024Z,2.70
2022-12-06T04:05:29.012Z,3.30
2022-12-06T04:06:28.987Z,3.30
2022-12-06T04:07:28.968Z,2.90
2022-12-06T04:08:28.975Z,3.20
2022-12-06T04:09:28.948Z,3.50
2022-12-06T04:10:28.960Z,3.80
2022-12-06T04:11:28.968Z,3.70
2022-12-06T04:12:28.920Z,3.60
2022-12-06T04:13:28.902Z,3.30
2022-12-06T04:14:28.907Z,3.20
2022-12-06T04:15:29.019Z,3.10
2022-12-06T04:16:28.957Z,3.30
2022-12-06T04:17:28.856Z,3.00
2022-12-06T04:18:28.848Z,2.90
2022-12-06T04:19:31.560Z,3.20
2022-12-06T04:20:28.843Z,3.20
2022-12-06T04:21:28.832Z,3.50
2022-12-06T04:22:28.827Z,3.10
2022-12-06T04:23:28.792Z,2.90
2022-12-06T04:24:28.783Z,3.40
2022-12-06T04:25:28.765Z,2.70
2022-12-06T04:26:28.796Z,3.10
2022-12-06T04:27:28.747Z,3.10
2022-12-06T04:28:28.739Z,3.10
2022-12-06T04:29:28.725Z,3.10
2022-12-06T04:30:28.735Z,3.20
2022-12-06T04:31:28.739Z,3.00
2022-12-06T04:32:28.726Z,3.30
2022-12-06T04:33:28.683Z,3.30
2022-12-06T04:34:28.675Z,3.50
2022-12-06T04:35:28.690Z,3.30
2022-12-06T04:36:28.647Z,3.30
2022-12-06T04:37:28.631Z,3.40
2022-12-06T04:38:28.661Z,3.10
2022-12-06T04:39:28.630Z,3.20
2022-12-06T04:40:28.626Z,3.30
2022-12-06T04:41:28.584Z,3.10
2022-12-06T04:42:28.580Z,3.30
2022-12-06T04:43:28.566Z,3.50
2022-12-06T04:44:28.594Z,3.30
2022-12-06T04:45:28.545Z,3.20
2022-12-06T04:46:28.598Z,3.40
2022-12-06T04:47:28.523Z,2.80
2022-12-06T04:48:28.520Z,3.30
2022-12-06T04:49:28.505Z,3.30
2022-12-06T04:50:28.531Z,3.10
2022-12-06T04:51:28.489Z,3.10
2022-12-06T04:52:34.079Z,3.00
2022-12-06T04:53:29.452Z,3.00
2022-12-06T04:54:28.470Z,3.00
2022-12-06T04:55:28.449Z,3.20
2022-12-06T04:56:28.447Z,3.50
2022-12-06T04:57:28.408Z,3.30
2022-12-06T04:58:28.400Z,3.30
2022-12-06T04:59:28.388Z,3.40
2022-12-06T05:00:28.468Z,3.00
2022-12-06T05:01:28.370Z,2.90
2022-12-06T05:02:28.393Z,3.20
2022-12-06T05:03:28.419Z,3.10
2022-12-06T05:04:28.422Z,2.90
2022-12-06T05:05:28.320Z,3.30
2022-12-06T05:06:28.311Z,3.50
2022-12-06T05:07:28.335Z,3.20
2022-12-06T05:08:28.302Z,3.40
2022-12-06T05:09:28.296Z,3.40
2022-12-06T05:10:28.279Z,3.10
2022-12-06T05:11:28.251Z,3.50
2022-12-06T05:12:28.253Z,3.50
2022-12-06T05:13:28.252Z,3.10
2022-12-06T05:14:28.238Z,3.90
2022-12-06T05:15:29.367Z,3.50
2022-12-06T05:16:28.297Z,3.40
2022-12-06T05:17:28.187Z,3.20
2022-12-06T05:18:28.200Z,3.50
2022-12-06T05:19:28.182Z,3.10
2022-12-06T05:20:28.168Z,3.40
2022-12-06T05:21:28.141Z,3.30
2022-12-06T05:22:28.130Z,3.30
2022-12-06T05:23:28.135Z,3.20
2022-12-06T05:24:28.132Z,3.40
2022-12-06T05:25:28.239Z,3.50
2022-12-06T05:26:28.110Z,3.00
2022-12-06T05:27:32.909Z,3.60
2022-12-06T05:28:29.066Z,3.70
2022-12-06T05:29:28.074Z,3.70
2022-12-06T05:30:28.046Z,4.00
2022-12-06T05:31:28.144Z,3.50
2022-12-06T05:32:28.053Z,3.40
2022-12-06T05:33:28.026Z,3.50
2022-12-06T05:34:27.998Z,3.40
2022-12-06T05:35:28.065Z,3.50
2022-12-06T05:36:27.977Z,3.30
2022-12-06T05:37:27.981Z,3.50
2022-12-06T05:38:27.968Z,3.40
2022-12-06T05:39:27.978Z,3.10
2022-12-06T05:40:27.980Z,3.50
2022-12-06T05:41:27.916Z,3.00
2022-12-06T05:42:27.933Z,3.20
2022-12-06T05:43:27.896Z,3.40
2022-12-06T05:44:27.900Z,3.30
2022-12-06T05:45:27.873Z,2.90
2022-12-06T05:46:27.911Z,3.70
2022-12-06T05:47:27.904Z,3.70
2022-12-06T05:48:27.937Z,3.50
2022-12-06T05:49:27.845Z,3.20
2022-12-06T05:50:27.853Z,3.30
2022-12-06T05:51:27.807Z,3.20
2022-12-06T05:52:27.806Z,3.50
2022-12-06T05:53:27.783Z,3.20
2022-12-06T05:54:27.776Z,3.20
2022-12-06T05:55:27.797Z,3.10
2022-12-06T05:56:28.381Z,3.60
2022-12-06T05:57:27.738Z,3.60
2022-12-06T05:58:27.751Z,3.30
2022-12-06T05:59:27.716Z,3.90
2022-12-06T06:00:27.711Z,3.30
2022-12-06T06:01:27.712Z,3.70
2022-12-06T06:02:27.869Z,3.50
2022-12-06T06:03:27.715Z,3.10
2022-12-06T06:04:27.682Z,3.50
2022-12-06T06:05:27.666Z,3.40
2022-12-06T06:06:27.661Z,3.50
2022-12-06T06:07:27.647Z,3.50
2022-12-06T06:08:27.636Z,3.10
2022-12-06T06:09:27.637Z,3.20
2022-12-06T06:10:27.596Z,3.60
2022-12-06T06:11:27.597Z,3.50
2022-12-06T06:12:27.588Z,3.50
2022-12-06T06:13:27.576Z,3.50
2022-12-06T06:14:27.567Z,3.80
2022-12-06T06:15:27.532Z,3.60
2022-12-06T06:16:27.592Z,3.70
2022-12-06T06:17:27.509Z,3.70
2022-12-06T06:18:27.521Z,3.90
2022-12-06T06:19:27.490Z,3.70
2022-12-06T06:20:27.495Z,3.50
2022-12-06T06:21:27.464Z,3.70
2022-12-06T06:22:27.464Z,3.50
2022-12-06T06:23:27.474Z,3.60
2022-12-06T06:24:27.437Z,3.80
2022-12-06T06:25:27.422Z,4.00
2022-12-06T06:26:27.450Z,4.00
2022-12-06T06:27:27.417Z,4.60
2022-12-06T06:28:27.410Z,4.00
2022-12-06T06:29:27.380Z,4.20
2022-12-06T06:30:27.389Z,4.20
2022-12-06T06:31:27.432Z,4.10
2022-12-06T06:32:27.378Z,4.00
2022-12-06T06:33:27.353Z,3.60
2022-12-06T06:34:27.339Z,3.70
2022-12-06T06:35:27.310Z,3.40
2022-12-06T06:36:27.321Z,3.50
2022-12-06T06:37:27.287Z,3.40
2022-12-06T06:38:27.300Z,3.80
2022-12-06T06:39:27.268Z,3.40
2022-12-06T06:40:27.278Z,3.70
2022-12-06T06:41:27.242Z,3.90
2022-12-06T06:42:27.242Z,3.70
2022-12-06T06:43:27.244Z,4.20
2022-12-06T06:44:27.232Z,4.30
2022-12-06T06:45:29.097Z,3.90
2022-12-06T06:46:27.243Z,4.00
2022-12-06T06:47:27.174Z,3.90
2022-12-06T06:48:27.184Z,3.90
2022-12-06T06:49:27.158Z,3.60
2022-12-06T06:50:27.164Z,3.40
2022-12-06T06:51:27.131Z,3.70
2022-12-06T06:52:27.149Z,4.00
2022-12-06T06:53:27.121Z,4.10
2022-12-06T06:54:27.098Z,3.60
2022-12-06T06:55:27.085Z,3.70
2022-12-06T06:56:27.094Z,3.90
2022-12-06T06:57:27.087Z,4.10
2022-12-06T06:58:27.076Z,3.80
2022-12-06T06:59:27.063Z,3.90
2022-12-06T07:00:27.034Z,4.00
2022-12-06T07:01:27.124Z,3.30
2022-12-06T07:02:27.070Z,4.10
2022-12-06T07:03:27.021Z,3.80
2022-12-06T07:04:26.993Z,4.00
2022-12-06T07:05:26.975Z,3.70
2022-12-06T07:06:26.966Z,3.80
2022-12-06T07:07:26.952Z,3.90
2022-12-06T07:08:26.986Z,3.60
2022-12-06T07:09:26.937Z,4.00
2022-12-06T07:10:26.922Z,3.70
2022-12-06T07:11:26.905Z,4.40
2022-12-06T07:12:26.897Z,4.10
2022-12-06T07:13:26.916Z,3.80
2022-12-06T07:14:26.889Z,3.80
2022-12-06T07:15:26.887Z,4.10
2022-12-06T07:16:26.925Z,3.90
2022-12-06T07:17:26.843Z,3.80
2022-12-06T07:18:26.859Z,3.90
2022-12-06T07:19:26.825Z,4.10
2022-12-06T07:20:26.825Z,4.00
2022-12-06T07:21:26.821Z,3.90
2022-12-06T07:22:26.807Z,4.00
2022-12-06T07:23:26.780Z,4.10
2022-12-06T07:24:26.761Z,4.40
2022-12-06T07:25:26.755Z,4.40
2022-12-06T07:26:26.769Z,5.00
2022-12-06T07:27:26.732Z,4.60
2022-12-06T07:28:26.739Z,4.40
2022-12-06T07:29:26.743Z,4.30
2022-12-06T07:30:28.487Z,4.20
2022-12-06T07:31:26.810Z,4.00
2022-12-06T07:32:26.741Z,4.00
2022-12-06T07:33:26.671Z,4.50
2022-12-06T07:34:26.651Z,5.40
2022-12-06T07:35:42.047Z,5.20
2022-12-06T07:36:27.646Z,4.70
2022-12-06T07:37:28.853Z,5.30
2022-12-06T07:38:26.640Z,4.90
2022-12-06T07:39:26.598Z,4.90
2022-12-06T07:40:48.344Z,5.10
2022-12-06T07:41:27.575Z,5.10
2022-12-06T07:42:26.580Z,4.70
2022-12-06T07:43:26.559Z,5.20
2022-12-06T07:44:26.556Z,4.60
2022-12-06T07:45:26.550Z,4.70
2022-12-06T07:46:26.576Z,4.90
2022-12-06T07:47:26.526Z,5.10
2022-12-06T07:48:26.497Z,4.50
2022-12-06T07:49:26.489Z,4.10
2022-12-06T07:50:26.508Z,4.10
2022-12-06T07:51:26.465Z,3.90
2022-12-06T07:52:26.447Z,4.40
2022-12-06T07:53:26.450Z,4.00
2022-12-06T07:54:26.448Z,3.90
2022-12-06T07:55:26.429Z,4.20
2022-12-06T07:56:26.449Z,3.90
2022-12-06T07:57:26.397Z,4.50
2022-12-06T07:58:26.404Z,4.10
2022-12-06T07:59:26.401Z,4.10
2022-12-06T08:00:26.357Z,3.90
2022-12-06T08:01:26.387Z,4.20
2022-12-06T08:02:26.347Z,3.50
2022-12-06T08:03:26.348Z,4.00
2022-12-06T08:04:26.437Z,3.70
2022-12-06T08:05:26.308Z,3.50
2022-12-06T08:06:26.291Z,3.70
2022-12-06T08:07:26.291Z,4.00
2022-12-06T08:08:28.927Z,3.90
2022-12-06T08:09:26.338Z,4.00
2022-12-06T08:10:26.301Z,3.50
2022-12-06T08:11:26.255Z,4.10
2022-12-06T08:12:26.244Z,3.90
2022-12-06T08:13:26.227Z,3.90
2022-12-06T08:14:26.224Z,3.70
2022-12-06T08:15:26.220Z,3.80
2022-12-06T08:16:26.330Z,3.70
2022-12-06T08:17:26.172Z,3.80
2022-12-06T08:18:26.160Z,3.50
2022-12-06T08:19:26.167Z,3.80
2022-12-06T08:20:26.234Z,4.20
2022-12-06T08:21:26.139Z,4.20
2022-12-06T08:22:26.131Z,4.20
2022-12-06T08:23:32.221Z,4.30
2022-12-06T08:24:27.090Z,3.90
2022-12-06T08:25:34.832Z,4.10
2022-12-06T08:26:26.257Z,4.40
2022-12-06T08:27:26.234Z,4.10
2022-12-06T08:28:26.097Z,3.30
2022-12-06T08:29:26.204Z,4.00
2022-12-06T08:30:26.085Z,4.10
2022-12-06T08:31:26.260Z,4.20
2022-12-06T08:32:26.021Z,4.10
2022-12-06T08:33:26.020Z,4.00
2022-12-06T08:34:25.982Z,4.40
2022-12-06T08:35:25.988Z,4.70
2022-12-06T08:36:25.955Z,4.70
2022-12-06T08:37:25.951Z,4.70
2022-12-06T08:38:25.955Z,5.00
2022-12-06T08:39:25.927Z,5.10
2022-12-06T08:40:26.050Z,4.50
2022-12-06T08:41:25.908Z,4.60
2022-12-06T08:42:25.888Z,4.90
2022-12-06T08:43:25.883Z,5.50
2022-12-06T08:44:25.872Z,4.70
2022-12-06T08:45:25.881Z,3.80
2022-12-06T08:46:25.970Z,4.00
2022-12-06T08:47:25.857Z,3.90
2022-12-06T08:48:25.822Z,4.20
2022-12-06T08:49:25.847Z,4.50
2022-12-06T08:50:25.860Z,5.40
2022-12-06T08:51:25.810Z,5.30
2022-12-06T08:52:25.778Z,6.10
2022-12-06T08:53:25.773Z,6.50
2022-12-06T08:54:25.773Z,5.90
2022-12-06T08:55:25.825Z,15.30
2022-12-06T08:56:25.732Z,12.60
2022-12-06T08:57:25.729Z,7.70
2022-12-06T08:58:25.880Z,14.70
2022-12-06T08:59:25.724Z,5.30
2022-12-06T09:00:25.702Z,7.00
2022-12-06T09:01:25.711Z,6.90
2022-12-06T09:02:25.677Z,5.20
2022-12-06T09:03:25.679Z,5.00
2022-12-06T09:04:25.687Z,4.90
2022-12-06T09:05:25.703Z,5.20
2022-12-06T09:06:25.622Z,4.30
2022-12-06T09:07:25.752Z,4.00
2022-12-06T09:08:25.638Z,3.90
2022-12-06T09:09:25.592Z,5.10
2022-12-06T09:10:25.618Z,5.30
2022-12-06T09:11:25.588Z,6.10
2022-12-06T09:12:25.551Z,7.10
2022-12-06T09:13:25.548Z,5.40
2022-12-06T09:14:27.104Z,3.60
2022-12-06T09:15:25.551Z,4.70
2022-12-06T09:16:25.635Z,4.60
2022-12-06T09:17:25.515Z,4.30
2022-12-06T09:18:25.490Z,3.50
2022-12-06T09:19:25.501Z,3.70
2022-12-06T09:20:25.463Z,3.60
2022-12-06T09:21:25.672Z,4.00
2022-12-06T09:22:25.441Z,3.70
2022-12-06T09:23:25.449Z,3.50
2022-12-06T09:24:25.428Z,3.10
2022-12-06T09:25:25.430Z,3.20
2022-12-06T09:26:25.427Z,3.80
2022-12-06T09:27:25.419Z,3.60
2022-12-06T09:28:25.369Z,3.30
2022-12-06T09:29:25.377Z,3.60
2022-12-06T09:30:25.361Z,4.30
2022-12-06T09:31:25.450Z,4.20
2022-12-06T09:32:25.334Z,4.70
2022-12-06T09:33:25.324Z,3.90
2022-12-06T09:34:25.305Z,3.40
2022-12-06T09:35:25.502Z,4.10
2022-12-06T09:36:25.337Z,3.80
2022-12-06T09:37:25.283Z,4.30
2022-12-06T09:38:25.262Z,3.10
2022-12-06T09:39:25.269Z,3.10
2022-12-06T09:40:25.255Z,3.30
2022-12-06T09:41:26.045Z,3.30
2022-12-06T09:42:25.887Z,3.40
2022-12-06T09:43:25.207Z,3.50
2022-12-06T09:44:25.195Z,3.30
2022-12-06T09:45:25.204Z,3.60
2022-12-06T09:46:25.244Z,3.90
2022-12-06T09:47:25.172Z,3.90
2022-12-06T09:48:25.153Z,3.50
2022-12-06T09:49:25.163Z,3.50
2022-12-06T09:50:25.125Z,5.10
2022-12-06T09:51:25.117Z,6.40
2022-12-06T09:52:25.130Z,6.10
2022-12-06T09:53:25.128Z,4.20
2022-12-06T09:54:25.107Z,3.90
2022-12-06T09:55:25.092Z,3.70
2022-12-06T09:56:25.080Z,4.10
2022-12-06T09:57:25.053Z,4.30
2022-12-06T09:58:25.036Z,3.70
2022-12-06T09:59:25.034Z,6.00
2022-12-06T10:00:25.032Z,6.20
2022-12-06T10:01:25.057Z,4.00
2022-12-06T10:02:25.122Z,4.50
2022-12-06T10:03:25.081Z,3.80
2022-12-06T10:04:24.967Z,4.50
2022-12-06T10:05:24.980Z,6.20
2022-12-06T10:06:24.965Z,4.10
2022-12-06T10:07:24.960Z,5.30
2022-12-06T10:08:25.152Z,3.50
2022-12-06T10:09:24.913Z,3.60
2022-12-06T10:10:24.906Z,3.40
2022-12-06T10:11:24.913Z,3.70
2022-12-06T10:12:24.902Z,4.00
2022-12-06T10:13:24.881Z,4.00
2022-12-06T10:14:24.874Z,3.90
2022-12-06T10:15:24.858Z,3.60
2022-12-06T10:16:24.913Z,3.40
2022-12-06T10:17:24.824Z,3.10
2022-12-06T10:18:24.819Z,3.70
2022-12-06T10:19:24.803Z,4.00
2022-12-06T10:20:24.804Z,3.00
2022-12-06T10:21:24.798Z,2.70
2022-12-06T10:22:24.764Z,2.90
2022-12-06T10:23:24.796Z,3.00
2022-12-06T10:24:24.745Z,3.00
2022-12-06T10:25:24.768Z,3.30
2022-12-06T10:26:24.723Z,4.30
2022-12-06T10:27:24.779Z,3.40
2022-12-06T10:28:25.469Z,2.90
2022-12-06T10:29:29.562Z,2.90
2022-12-06T10:30:25.742Z,2.80
2022-12-06T10:31:24.786Z,3.00
2022-12-06T10:32:24.660Z,3.50
2022-12-06T10:33:24.720Z,3.80
2022-12-06T10:34:24.639Z,3.30
2022-12-06T10:35:24.672Z,3.40
2022-12-06T10:36:24.635Z,2.80
2022-12-06T10:37:24.614Z,2.20
2022-12-06T10:38:24.608Z,2.40
2022-12-06T10:39:24.610Z,2.60
2022-12-06T10:40:24.581Z,2.70
2022-12-06T10:41:24.558Z,1.70
2022-12-06T10:42:24.697Z,2.50
2022-12-06T10:43:24.570Z,2.90
2022-12-06T10:44:24.527Z,1.60
2022-12-06T10:45:25.068Z,1.60
2022-12-06T10:46:24.595Z,1.30
2022-12-06T10:47:24.513Z,2.10
2022-12-06T10:48:24.488Z,1.60
2022-12-06T10:49:24.470Z,1.40
2022-12-06T10:50:24.451Z,1.70
2022-12-06T10:51:25.551Z,1.30
2022-12-06T10:52:25.374Z,1.30
2022-12-06T10:53:24.425Z,1.00
2022-12-06T10:54:24.416Z,1.10
2022-12-06T10:55:24.424Z,1.10
2022-12-06T10:56:24.388Z,1.30
2022-12-06T10:57:24.384Z,1.90
2022-12-06T10:58:24.359Z,1.50
2022-12-06T10:59:24.418Z,1.40
2022-12-06T11:00:24.390Z,1.40
2022-12-06T11:01:24.402Z,1.10
2022-12-06T11:02:24.433Z,1.50
2022-12-06T11:03:24.310Z,1.50
2022-12-06T11:04:24.299Z,1.50
2022-12-06T11:05:24.310Z,2.20
2022-12-06T11:06:24.281Z,2.00
2022-12-06T11:07:24.276Z,1.80
2022-12-06T11:08:24.388Z,1.40
2022-12-06T11:09:24.245Z,2.00
2022-12-06T11:10:24.229Z,1.70
2022-12-06T11:11:24.221Z,2.50
2022-12-06T11:12:28.057Z,1.90
2022-12-06T11:13:25.196Z,1.70
2022-12-06T11:14:24.180Z,1.50
2022-12-06T11:15:24.191Z,1.60
2022-12-06T11:16:24.252Z,1.80
2022-12-06T11:17:24.171Z,1.90
2022-12-06T11:18:24.142Z,2.50
2022-12-06T11:19:24.137Z,2.60
2022-12-06T11:20:24.113Z,2.00
2022-12-06T11:21:24.128Z,2.40
2022-12-06T11:22:24.098Z,2.10
2022-12-06T11:23:24.107Z,2.10
2022-12-06T11:24:24.071Z,2.60
2022-12-06T11:25:24.089Z,2.60
2022-12-06T11:26:24.053Z,2.30
2022-12-06T11:27:24.040Z,2.20
2022-12-06T11:28:24.031Z,2.70
2022-12-06T11:29:24.018Z,2.60
2022-12-06T11:30:24.036Z,2.40
2022-12-06T11:31:24.066Z,2.30
2022-12-06T11:32:24.003Z,2.50
2022-12-06T11:33:23.972Z,2.90
2022-12-06T11:34:23.965Z,2.60
2022-12-06T11:35:23.949Z,3.20
2022-12-06T11:36:23.959Z,2.70
2022-12-06T11:37:23.932Z,3.00
2022-12-06T11:38:23.921Z,3.00
2022-12-06T11:39:23.901Z,3.40
2022-12-06T11:40:23.915Z,3.10
2022-12-06T11:41:23.902Z,3.10
2022-12-06T11:42:23.875Z,2.80
2022-12-06T11:43:23.889Z,2.70
2022-12-06T11:44:23.852Z,3.30
2022-12-06T11:45:23.839Z,3.00
2022-12-06T11:46:23.938Z,3.10
2022-12-06T11:47:23.831Z,3.40
2022-12-06T11:48:23.815Z,3.00
2022-12-06T11:49:23.815Z,3.10
2022-12-06T11:50:23.798Z,3.10
2022-12-06T11:51:23.767Z,3.00
2022-12-06T11:52:23.762Z,3.90
2022-12-06T11:53:23.747Z,3.30
2022-12-06T11:54:23.764Z,4.10
2022-12-06T11:55:23.724Z,3.30
2022-12-06T11:56:23.731Z,3.30
2022-12-06T11:57:23.721Z,3.60
2022-12-06T11:58:23.700Z,3.40
2022-12-06T11:59:23.701Z,3.30
2022-12-06T12:00:23.676Z,3.80
2022-12-06T12:01:23.670Z,3.50
2022-12-06T12:02:23.740Z,2.90
2022-12-06T12:03:23.681Z,3.30
2022-12-06T12:04:23.628Z,3.00
2022-12-06T12:05:23.609Z,2.80
2022-12-06T12:06:23.629Z,2.80
2022-12-06T12:07:23.592Z,3.00
2022-12-06T12:08:26.217Z,3.30
2022-12-06T12:09:24.580Z,2.80
2022-12-06T12:10:23.573Z,2.80
2022-12-06T12:11:23.546Z,2.80
2022-12-06T12:12:23.561Z,3.30
2022-12-06T12:13:23.525Z,2.90
2022-12-06T12:14:23.516Z,2.90
2022-12-06T12:15:23.532Z,3.30
2022-12-06T12:16:23.615Z,3.10
2022-12-06T12:17:23.480Z,3.30
2022-12-06T12:18:23.470Z,3.40
2022-12-06T12:19:23.475Z,3.20
2022-12-06T12:20:23.473Z,3.10
2022-12-06T12:21:23.442Z,4.20
2022-12-06T12:22:23.448Z,3.30
2022-12-06T12:23:23.411Z,2.60
2022-12-06T12:24:23.406Z,2.90
2022-12-06T12:25:23.879Z,3.10
2022-12-06T12:26:23.388Z,3.00
2022-12-06T12:27:28.394Z,2.90
2022-12-06T12:28:24.480Z,3.00
2022-12-06T12:29:23.344Z,3.00
2022-12-06T12:30:23.337Z,2.80
2022-12-06T12:31:23.415Z,3.40
2022-12-06T12:32:23.316Z,3.20
2022-12-06T12:33:23.305Z,2.60
2022-12-06T12:34:23.320Z,3.10
2022-12-06T12:35:23.293Z,3.20
2022-12-06T12:36:23.289Z,3.00
2022-12-06T12:37:23.257Z,3.30
2022-12-06T12:38:23.260Z,3.10
2022-12-06T12:39:23.233Z,2.30
2022-12-06T12:40:23.236Z,2.80
2022-12-06T12:41:23.257Z,2.70
2022-12-06T12:42:23.248Z,3.40
2022-12-06T12:43:23.216Z,2.90
2022-12-06T12:44:39.533Z,3.50
2022-12-06T12:45:24.193Z,2.60
2022-12-06T12:46:23.235Z,3.10
2022-12-06T12:47:23.144Z,3.40
2022-12-06T12:48:23.157Z,3.30
2022-12-06T12:49:23.128Z,3.00
2022-12-06T12:50:23.132Z,3.10
2022-12-06T12:51:23.134Z,2.80
2022-12-06T12:52:23.094Z,3.00
2022-12-06T12:53:23.077Z,2.90
2022-12-06T12:54:23.088Z,3.10
2022-12-06T12:55:23.078Z,3.10
2022-12-06T12:56:23.048Z,2.80
2022-12-06T12:57:23.037Z,3.20
2022-12-06T12:58:23.045Z,2.70
2022-12-06T12:59:23.010Z,3.30
2022-12-06T13:00:23.012Z,2.90
2022-12-06T13:01:23.065Z,2.80
2022-12-06T13:02:23.076Z,3.80
2022-12-06T13:03:51.898Z,6.60
2022-12-06T13:04:23.957Z,7.70
2022-12-06T13:05:44.921Z,4.10
2022-12-06T13:06:23.962Z,3.70
2022-12-06T13:07:22.963Z,3.30
2022-12-06T13:08:22.985Z,3.40
2022-12-06T13:09:22.907Z,4.40
2022-12-06T13:10:22.896Z,4.60
2022-12-06T13:11:22.877Z,3.70
2022-12-06T13:12:22.893Z,3.70
2022-12-06T13:13:22.856Z,3.30
2022-12-06T13:14:22.878Z,4.50
2022-12-06T13:15:22.843Z,5.10
2022-12-06T13:16:22.931Z,4.20
2022-12-06T13:17:22.837Z,4.00
2022-12-06T13:18:22.803Z,4.20